createdAt,value
2023-01-26T00:00:02.974Z,996.47
2023-01-26T00:01:02.936Z,996.49
2023-01-26T00:02:02.925Z,996.40
2023-01-26T00:03:02.940Z,996.47
2023-01-26T00:04:02.945Z,996.45
2023-01-26T00:05:02.917Z,996.44
2023-01-26T00:06:02.894Z,996.40
2023-01-26T00:07:02.886Z,996.36
2023-01-26T00:08:02.890Z,996.42
2023-01-26T00:09:02.871Z,996.42
2023-01-26T00:10:02.859Z,996.42
2023-01-26T00:11:02.834Z,996.48
2023-01-26T00:12:02.836Z,996.39
2023-01-26T00:13:02.838Z,996.41
2023-01-26T00:14:02.808Z,996.48
2023-01-26T00:15:02.803Z,996.47
2023-01-26T00:16:02.843Z,996.48
2023-01-26T00:17:02.790Z,996.46
2023-01-26T00:18:02.807Z,996.49
2023-01-26T00:19:02.765Z,996.48
2023-01-26T00:20:02.741Z,996.42
2023-01-26T00:21:02.737Z,996.38
2023-01-26T00:22:02.734Z,996.36
2023-01-26T00:23:02.743Z,996.41
2023-01-26T00:24:02.767Z,996.40
2023-01-26T00:25:02.689Z,996.36
2023-01-26T00:26:02.682Z,996.37
2023-01-26T00:27:02.672Z,996.28
2023-01-26T00:28:02.688Z,996.36
2023-01-26T00:29:02.725Z,996.41
2023-01-26T00:30:02.647Z,996.41
2023-01-26T00:31:02.661Z,996.44
2023-01-26T00:32:02.621Z,996.44
2023-01-26T00:33:02.634Z,996.48
2023-01-26T00:34:02.655Z,996.48
2023-01-26T00:35:02.606Z,996.42
2023-01-26T00:36:02.602Z,996.47
2023-01-26T00:37:02.592Z,996.37
2023-01-26T00:38:02.574Z,996.41
2023-01-26T00:39:02.596Z,996.30
2023-01-26T00:40:02.546Z,996.30
2023-01-26T00:41:02.561Z,996.29
2023-01-26T00:42:02.569Z,996.26
2023-01-26T00:43:02.614Z,996.33
2023-01-26T00:44:02.558Z,996.32
2023-01-26T00:45:02.502Z,996.32
2023-01-26T00:46:02.488Z,996.25
2023-01-26T00:47:02.498Z,996.26
2023-01-26T00:48:02.468Z,996.24
2023-01-26T00:49:02.508Z,996.19
2023-01-26T00:50:02.491Z,996.13
2023-01-26T00:51:02.429Z,996.15
2023-01-26T00:52:02.440Z,996.13
2023-01-26T00:53:02.440Z,996.17
2023-01-26T00:54:02.403Z,996.14
2023-01-26T00:55:02.414Z,996.19
2023-01-26T00:56:02.396Z,996.17
2023-01-26T00:57:02.406Z,996.14
2023-01-26T00:58:02.356Z,996.16
2023-01-26T00:59:02.369Z,996.22
2023-01-26T01:00:02.367Z,996.19
2023-01-26T01:01:02.354Z,996.17
2023-01-26T01:02:02.379Z,996.16
2023-01-26T01:03:02.319Z,996.18
2023-01-26T01:04:02.330Z,996.17
2023-01-26T01:05:02.330Z,996.16
2023-01-26T01:06:02.300Z,996.09
2023-01-26T01:07:02.311Z,996.12
2023-01-26T01:08:02.276Z,996.12
2023-01-26T01:09:02.271Z,996.19
2023-01-26T01:10:02.270Z,996.16
2023-01-26T01:11:02.237Z,996.17
2023-01-26T01:12:02.230Z,996.12
2023-01-26T01:13:02.231Z,996.14
2023-01-26T01:14:02.240Z,996.20
2023-01-26T01:15:02.203Z,996.20
2023-01-26T01:16:02.204Z,996.22
2023-01-26T01:17:02.188Z,996.18
2023-01-26T01:18:02.171Z,996.18
2023-01-26T01:19:02.178Z,996.19
2023-01-26T01:20:02.152Z,996.20
2023-01-26T01:21:02.140Z,996.12
2023-01-26T01:22:02.148Z,996.18
2023-01-26T01:23:02.146Z,996.14
2023-01-26T01:24:02.158Z,996.07
2023-01-26T01:25:02.116Z,996.11
2023-01-26T01:26:02.131Z,996.11
2023-01-26T01:27:02.099Z,996.10
2023-01-26T01:28:02.083Z,996.11
2023-01-26T01:29:02.075Z,996.07
2023-01-26T01:30:02.064Z,996.08
2023-01-26T01:31:02.204Z,996.15
2023-01-26T01:32:02.141Z,996.13
2023-01-26T01:33:02.038Z,996.12
2023-01-26T01:34:02.042Z,996.18
2023-01-26T01:35:02.015Z,996.13
2023-01-26T01:36:02.025Z,996.07
2023-01-26T01:37:01.999Z,996.18
2023-01-26T01:38:02.012Z,996.13
2023-01-26T01:39:01.972Z,996.11
2023-01-26T01:40:01.972Z,996.18
2023-01-26T01:41:01.954Z,996.06
2023-01-26T01:42:01.960Z,996.12
2023-01-26T01:43:01.963Z,996.08
2023-01-26T01:44:01.923Z,996.10
2023-01-26T01:45:01.919Z,996.11
2023-01-26T01:46:01.931Z,996.15
2023-01-26T01:47:01.935Z,996.08
2023-01-26T01:48:01.892Z,996.14
2023-01-26T01:49:01.894Z,996.06
2023-01-26T01:50:01.858Z,996.10
2023-01-26T01:51:01.913Z,996.14
2023-01-26T01:52:01.867Z,996.12
2023-01-26T01:53:01.819Z,996.10
2023-01-26T01:54:02.825Z,996.11
2023-01-26T01:55:01.819Z,996.06
2023-01-26T01:56:01.823Z,996.09
2023-01-26T01:57:01.791Z,996.07
2023-01-26T01:58:02.786Z,996.10
2023-01-26T01:59:01.773Z,996.08
2023-01-26T02:00:01.773Z,996.08
2023-01-26T02:01:01.799Z,996.04
2023-01-26T02:02:01.790Z,996.03
2023-01-26T02:03:01.759Z,996.05
2023-01-26T02:04:33.629Z,996.04
2023-01-26T02:05:01.725Z,996.06
2023-01-26T02:06:01.709Z,996.04
2023-01-26T02:07:01.709Z,996.03
2023-01-26T02:08:01.718Z,995.97
2023-01-26T02:09:01.678Z,995.97
2023-01-26T02:10:01.669Z,995.96
2023-01-26T02:11:01.669Z,995.94
2023-01-26T02:12:01.669Z,995.90
2023-01-26T02:13:01.679Z,995.90
2023-01-26T02:14:01.633Z,995.86
2023-01-26T02:15:01.653Z,995.87
2023-01-26T02:16:01.646Z,995.81
2023-01-26T02:17:01.610Z,995.82
2023-01-26T02:18:01.594Z,995.87
2023-01-26T02:19:01.585Z,995.84
2023-01-26T02:20:01.619Z,995.83
2023-01-26T02:21:01.577Z,995.80
2023-01-26T02:22:01.576Z,995.77
2023-01-26T02:23:01.546Z,995.79
2023-01-26T02:24:01.544Z,995.70
2023-01-26T02:25:01.524Z,995.71
2023-01-26T02:26:01.550Z,995.72
2023-01-26T02:27:01.528Z,995.65
2023-01-26T02:28:01.556Z,995.67
2023-01-26T02:29:01.524Z,995.68
2023-01-26T02:30:01.516Z,995.64
2023-01-26T02:31:01.587Z,995.64
2023-01-26T02:32:01.554Z,995.61
2023-01-26T02:33:01.457Z,995.61
2023-01-26T02:34:01.442Z,995.58
2023-01-26T02:35:01.486Z,995.57
2023-01-26T02:36:01.420Z,995.60
2023-01-26T02:37:01.410Z,995.48
2023-01-26T02:38:01.397Z,995.48
2023-01-26T02:39:01.426Z,995.50
2023-01-26T02:40:01.388Z,995.54
2023-01-26T02:41:01.376Z,995.51
2023-01-26T02:42:01.358Z,995.52
2023-01-26T02:43:01.359Z,995.49
2023-01-26T02:44:01.356Z,995.45
2023-01-26T02:45:01.455Z,995.47
2023-01-26T02:46:01.387Z,995.46
2023-01-26T02:47:01.312Z,995.51
2023-01-26T02:48:01.309Z,995.46
2023-01-26T02:49:01.286Z,995.45
2023-01-26T02:50:01.306Z,995.46
2023-01-26T02:51:01.269Z,995.46
2023-01-26T02:52:01.260Z,995.46
2023-01-26T02:53:01.288Z,995.47
2023-01-26T02:54:01.265Z,995.47
2023-01-26T02:55:01.229Z,995.47
2023-01-26T02:56:01.239Z,995.49
2023-01-26T02:57:01.243Z,995.51
2023-01-26T02:58:01.214Z,995.51
2023-01-26T02:59:01.189Z,995.43
2023-01-26T03:00:01.188Z,995.41
2023-01-26T03:01:02.255Z,995.41
2023-01-26T03:02:01.195Z,995.37
2023-01-26T03:03:01.191Z,995.31
2023-01-26T03:04:01.162Z,995.33
2023-01-26T03:05:01.136Z,995.34
2023-01-26T03:06:01.146Z,995.38
2023-01-26T03:07:01.130Z,995.32
2023-01-26T03:08:01.138Z,995.30
2023-01-26T03:09:01.123Z,995.34
2023-01-26T03:10:01.111Z,995.32
2023-01-26T03:11:01.082Z,995.29
2023-01-26T03:12:01.069Z,995.29
2023-01-26T03:13:01.062Z,995.22
2023-01-26T03:14:01.071Z,995.19
2023-01-26T03:15:01.048Z,995.24
2023-01-26T03:16:01.081Z,995.20
2023-01-26T03:17:01.022Z,995.19
2023-01-26T03:18:01.030Z,995.20
2023-01-26T03:19:01.006Z,995.20
2023-01-26T03:20:01.025Z,995.17
2023-01-26T03:21:00.981Z,995.15
2023-01-26T03:22:00.990Z,995.18
2023-01-26T03:23:00.969Z,995.13
2023-01-26T03:24:01.065Z,995.17
2023-01-26T03:25:00.957Z,995.13
2023-01-26T03:26:00.934Z,995.12
2023-01-26T03:27:00.933Z,995.16
2023-01-26T03:28:00.930Z,995.13
2023-01-26T03:29:00.933Z,995.10
2023-01-26T03:30:00.908Z,995.12
2023-01-26T03:31:00.936Z,995.05
2023-01-26T03:32:00.883Z,995.06
2023-01-26T03:33:00.892Z,995.04
2023-01-26T03:34:00.870Z,995.00
2023-01-26T03:35:00.857Z,995.05
2023-01-26T03:36:00.862Z,995.05
2023-01-26T03:37:00.881Z,995.02
2023-01-26T03:38:00.837Z,995.06
2023-01-26T03:39:00.832Z,995.02
2023-01-26T03:40:00.818Z,995.02
2023-01-26T03:41:00.803Z,995.04
2023-01-26T03:42:00.825Z,995.00
2023-01-26T03:43:00.798Z,995.02
2023-01-26T03:44:00.764Z,995.00
2023-01-26T03:45:00.756Z,995.09
2023-01-26T03:46:00.745Z,995.06
2023-01-26T03:47:00.758Z,995.04
2023-01-26T03:48:00.767Z,994.97
2023-01-26T03:49:00.706Z,994.97
2023-01-26T03:50:00.700Z,994.96
2023-01-26T03:51:00.729Z,995.01
2023-01-26T03:52:00.690Z,994.94
2023-01-26T03:53:00.704Z,994.93
2023-01-26T03:54:00.681Z,994.89
2023-01-26T03:55:00.664Z,994.90
2023-01-26T03:56:00.646Z,994.89
2023-01-26T03:57:00.655Z,994.90
2023-01-26T03:58:00.619Z,994.89
2023-01-26T03:59:00.655Z,994.85
2023-01-26T04:00:00.635Z,994.90
2023-01-26T04:01:00.642Z,994.86
2023-01-26T04:02:00.660Z,994.90
2023-01-26T04:03:00.599Z,994.92
2023-01-26T04:04:00.597Z,994.93
2023-01-26T04:05:00.565Z,994.95
2023-01-26T04:06:15.704Z,994.91
2023-01-26T04:07:01.540Z,994.88
2023-01-26T04:08:00.541Z,994.92
2023-01-26T04:09:00.518Z,994.94
2023-01-26T04:10:00.532Z,994.92
2023-01-26T04:11:00.544Z,994.88
2023-01-26T04:12:00.504Z,994.90
2023-01-26T04:13:00.498Z,994.90
2023-01-26T04:14:00.489Z,994.91
2023-01-26T04:15:00.491Z,994.89
2023-01-26T04:16:00.469Z,994.92
2023-01-26T04:17:00.491Z,994.93
2023-01-26T04:18:00.432Z,994.91
2023-01-26T04:19:00.451Z,994.92
2023-01-26T04:20:00.416Z,994.88
2023-01-26T04:21:00.425Z,994.93
2023-01-26T04:22:00.490Z,994.92
2023-01-26T04:23:00.385Z,994.86
2023-01-26T04:24:00.407Z,994.88
2023-01-26T04:25:00.367Z,994.92
2023-01-26T04:26:00.388Z,994.94
2023-01-26T04:27:00.340Z,994.91
2023-01-26T04:28:00.347Z,994.86
2023-01-26T04:29:00.334Z,994.95
2023-01-26T04:30:00.321Z,994.83
2023-01-26T04:31:00.331Z,994.92
2023-01-26T04:32:00.304Z,994.83
2023-01-26T04:33:00.296Z,994.85
2023-01-26T04:34:00.287Z,994.80
2023-01-26T04:35:00.272Z,994.82
2023-01-26T04:36:00.277Z,994.84
2023-01-26T04:37:00.278Z,994.74
2023-01-26T04:38:00.270Z,994.81
2023-01-26T04:39:00.239Z,994.76
2023-01-26T04:40:00.240Z,994.80
2023-01-26T04:41:00.235Z,994.79
2023-01-26T04:42:00.229Z,994.79
2023-01-26T04:43:00.221Z,994.75
2023-01-26T04:44:00.204Z,994.79
2023-01-26T04:45:00.183Z,994.71
2023-01-26T04:46:00.218Z,994.72
2023-01-26T04:47:00.182Z,994.72
2023-01-26T04:48:00.156Z,994.73
2023-01-26T04:49:00.160Z,994.73
2023-01-26T04:50:00.134Z,994.66
2023-01-26T04:51:00.126Z,994.67
2023-01-26T04:52:00.128Z,994.68
2023-01-26T04:53:00.131Z,994.70
2023-01-26T04:54:00.129Z,994.61
2023-01-26T04:55:00.123Z,994.75
2023-01-26T04:56:00.088Z,994.65
2023-01-26T04:57:00.090Z,994.64
2023-01-26T04:58:00.048Z,994.57
2023-01-26T04:59:00.051Z,994.57
2023-01-26T05:00:00.039Z,994.60
2023-01-26T05:01:00.046Z,994.61
2023-01-26T05:02:00.093Z,994.53
2023-01-26T05:03:00.009Z,994.55
2023-01-26T05:04:00.025Z,994.55
2023-01-26T05:04:59.986Z,994.64
2023-01-26T05:05:59.970Z,994.58
2023-01-26T05:06:59.989Z,994.62
2023-01-26T05:07:59.961Z,994.65
2023-01-26T05:08:59.955Z,994.63
2023-01-26T05:09:59.933Z,994.62
2023-01-26T05:10:59.948Z,994.63
2023-01-26T05:11:59.918Z,994.68
2023-01-26T05:12:59.926Z,994.67
2023-01-26T05:13:59.907Z,994.66
2023-01-26T05:14:59.891Z,994.65
2023-01-26T05:15:59.905Z,994.63
2023-01-26T05:17:00.193Z,994.67
2023-01-26T05:17:59.893Z,994.65
2023-01-26T05:18:59.833Z,994.70
2023-01-26T05:19:59.842Z,994.68
2023-01-26T05:20:59.861Z,994.71
2023-01-26T05:21:59.840Z,994.65
2023-01-26T05:22:59.825Z,994.69
2023-01-26T05:23:59.797Z,994.66
2023-01-26T05:24:59.789Z,994.68
2023-01-26T05:25:59.805Z,994.70
2023-01-26T05:26:59.771Z,994.70
2023-01-26T05:27:59.757Z,994.74
2023-01-26T05:28:59.762Z,994.72
2023-01-26T05:29:59.753Z,994.77
2023-01-26T05:30:59.835Z,994.72
2023-01-26T05:31:59.798Z,994.76
2023-01-26T05:32:59.707Z,994.80
2023-01-26T05:33:59.760Z,994.79
2023-01-26T05:34:59.712Z,994.80
2023-01-26T05:35:59.698Z,994.79
2023-01-26T05:36:59.675Z,994.83
2023-01-26T05:37:59.668Z,994.80
2023-01-26T05:38:59.694Z,994.80
2023-01-26T05:39:59.645Z,994.86
2023-01-26T05:40:59.668Z,994.84
2023-01-26T05:41:59.640Z,994.89
2023-01-26T05:42:59.631Z,994.87
2023-01-26T05:43:59.621Z,994.89
2023-01-26T05:44:59.617Z,994.88
2023-01-26T05:45:59.675Z,994.89
2023-01-26T05:46:59.600Z,994.90
2023-01-26T05:47:59.597Z,994.93
2023-01-26T05:48:59.569Z,994.94
2023-01-26T05:49:59.589Z,994.95
2023-01-26T05:50:59.535Z,994.95
2023-01-26T05:51:59.526Z,994.94
2023-01-26T05:52:59.525Z,994.99
2023-01-26T05:53:59.525Z,995.02
2023-01-26T05:54:59.532Z,995.00
2023-01-26T05:55:59.492Z,995.00
2023-01-26T05:56:59.491Z,995.00
2023-01-26T05:57:59.489Z,994.99
2023-01-26T05:58:59.462Z,995.00
2023-01-26T05:59:59.459Z,995.01
2023-01-26T06:00:59.445Z,995.00
2023-01-26T06:01:59.457Z,995.03
2023-01-26T06:02:59.446Z,995.02
2023-01-26T06:03:59.466Z,995.01
2023-01-26T06:04:59.430Z,994.94
2023-01-26T06:05:59.403Z,994.95
2023-01-26T06:06:59.389Z,994.95
2023-01-26T06:07:59.392Z,994.94
2023-01-26T06:08:59.373Z,994.91
2023-01-26T06:09:59.391Z,994.99
2023-01-26T06:10:59.364Z,994.90
2023-01-26T06:11:59.350Z,994.90
2023-01-26T06:12:59.402Z,994.92
2023-01-26T06:13:59.315Z,994.89
2023-01-26T06:14:59.332Z,994.91
2023-01-26T06:15:59.300Z,994.89
2023-01-26T06:16:59.305Z,994.91
2023-01-26T06:17:59.333Z,994.90
2023-01-26T06:18:59.277Z,994.89
2023-01-26T06:19:59.266Z,994.87
2023-01-26T06:20:59.263Z,994.88
2023-01-26T06:21:59.247Z,994.89
2023-01-26T06:22:59.266Z,994.96
2023-01-26T06:23:59.301Z,994.92
2023-01-26T06:24:59.209Z,994.95
2023-01-26T06:25:59.202Z,994.98
2023-01-26T06:27:00.194Z,994.95
2023-01-26T06:27:59.185Z,994.97
2023-01-26T06:28:59.224Z,995.00
2023-01-26T06:29:59.233Z,995.01
2023-01-26T06:30:59.196Z,995.05
2023-01-26T06:31:59.151Z,995.10
2023-01-26T06:33:00.305Z,995.04
2023-01-26T06:33:59.156Z,995.02
2023-01-26T06:34:59.143Z,994.99
2023-01-26T06:35:59.111Z,995.04
2023-01-26T06:36:59.103Z,995.04
2023-01-26T06:37:59.091Z,995.07
2023-01-26T06:39:00.783Z,994.97
2023-01-26T06:40:00.137Z,994.98
2023-01-26T06:40:59.054Z,995.00
2023-01-26T06:41:59.057Z,994.96
2023-01-26T06:42:59.042Z,995.00
2023-01-26T06:43:59.049Z,994.96
2023-01-26T06:44:59.050Z,994.94
2023-01-26T06:45:59.049Z,994.95
2023-01-26T06:46:59.007Z,994.93
2023-01-26T06:47:58.993Z,994.99
2023-01-26T06:48:58.989Z,994.98
2023-01-26T06:49:59.005Z,994.97
2023-01-26T06:50:59.011Z,994.97
2023-01-26T06:51:58.965Z,994.95
2023-01-26T06:52:58.943Z,994.93
2023-01-26T06:53:58.970Z,994.98
2023-01-26T06:54:58.949Z,994.93
2023-01-26T06:55:58.925Z,994.92
2023-01-26T06:56:58.893Z,994.99
2023-01-26T06:57:58.882Z,994.96
2023-01-26T06:58:58.912Z,994.97
2023-01-26T06:59:58.938Z,995.00
2023-01-26T07:00:58.905Z,995.05
2023-01-26T07:01:58.839Z,994.97
2023-01-26T07:02:58.847Z,994.92
2023-01-26T07:03:58.838Z,994.98
2023-01-26T07:04:58.868Z,994.98
2023-01-26T07:05:58.804Z,994.92
2023-01-26T07:06:59.812Z,994.99
2023-01-26T07:07:58.790Z,995.01
2023-01-26T07:08:58.799Z,995.01
2023-01-26T07:09:58.808Z,995.08
2023-01-26T07:10:58.767Z,995.02
2023-01-26T07:11:58.761Z,995.07
2023-01-26T07:12:58.754Z,995.04
2023-01-26T07:13:58.737Z,995.10
2023-01-26T07:14:58.750Z,995.06
2023-01-26T07:15:58.728Z,995.10
2023-01-26T07:16:58.715Z,995.17
2023-01-26T07:17:58.689Z,995.10
2023-01-26T07:18:58.705Z,995.20
2023-01-26T07:19:58.717Z,995.17
2023-01-26T07:20:58.685Z,995.19
2023-01-26T07:21:58.664Z,995.21
2023-01-26T07:22:58.671Z,995.20
2023-01-26T07:23:58.713Z,995.22
2023-01-26T07:24:58.638Z,995.26
2023-01-26T07:25:58.887Z,995.24
2023-01-26T07:26:58.628Z,995.22
2023-01-26T07:27:58.622Z,995.19
2023-01-26T07:28:58.631Z,995.29
2023-01-26T07:29:58.588Z,995.23
2023-01-26T07:30:58.663Z,995.29
2023-01-26T07:31:58.620Z,995.31
2023-01-26T07:32:58.600Z,995.29
2023-01-26T07:33:58.571Z,995.36
2023-01-26T07:34:58.554Z,995.38
2023-01-26T07:35:58.546Z,995.40
2023-01-26T07:36:59.544Z,995.38
2023-01-26T07:37:58.527Z,995.38
2023-01-26T07:38:58.498Z,995.39
2023-01-26T07:39:58.495Z,995.37
2023-01-26T07:40:58.482Z,995.34
2023-01-26T07:41:58.506Z,995.33
2023-01-26T07:42:58.473Z,995.32
2023-01-26T07:43:58.501Z,995.33
2023-01-26T07:44:58.440Z,995.36
2023-01-26T07:45:58.460Z,995.31
2023-01-26T07:46:58.485Z,995.40
2023-01-26T07:47:58.412Z,995.46
2023-01-26T07:48:58.478Z,995.33
2023-01-26T07:49:58.404Z,995.39
2023-01-26T07:50:58.389Z,995.44
2023-01-26T07:51:58.406Z,995.43
2023-01-26T07:52:58.369Z,995.46
2023-01-26T07:53:58.359Z,995.47
2023-01-26T07:54:58.346Z,995.49
2023-01-26T07:55:58.354Z,995.45
2023-01-26T07:56:58.351Z,995.51
2023-01-26T07:57:58.348Z,995.56
2023-01-26T07:58:58.316Z,995.61
2023-01-26T07:59:58.308Z,995.59
2023-01-26T08:00:58.302Z,995.62
2023-01-26T08:01:58.319Z,995.64
2023-01-26T08:02:58.446Z,995.63
2023-01-26T08:04:30.765Z,995.58
2023-01-26T08:04:58.370Z,995.61
2023-01-26T08:05:58.250Z,995.60
2023-01-26T08:06:58.792Z,995.54
2023-01-26T08:07:58.248Z,995.58
2023-01-26T08:08:58.255Z,995.59
2023-01-26T08:09:58.193Z,995.66
2023-01-26T08:10:58.185Z,995.61
2023-01-26T08:11:58.193Z,995.58
2023-01-26T08:12:58.213Z,995.69
2023-01-26T08:13:58.188Z,995.63
2023-01-26T08:14:58.210Z,995.64
2023-01-26T08:15:58.799Z,995.65
2023-01-26T08:16:58.144Z,995.62
2023-01-26T08:17:58.128Z,995.70
2023-01-26T08:18:58.129Z,995.70
2023-01-26T08:19:58.137Z,995.75
2023-01-26T08:20:58.106Z,995.73
2023-01-26T08:21:58.110Z,995.71
2023-01-26T08:23:00.374Z,995.72
2023-01-26T08:23:59.070Z,995.73
2023-01-26T08:24:58.873Z,995.75
2023-01-26T08:25:58.112Z,995.70
2023-01-26T08:26:58.076Z,995.65
2023-01-26T08:27:58.076Z,995.68
2023-01-26T08:28:58.020Z,995.66
2023-01-26T08:29:58.019Z,995.69
2023-01-26T08:30:58.047Z,995.68
2023-01-26T08:31:58.040Z,995.70
2023-01-26T08:32:58.011Z,995.71
2023-01-26T08:33:57.999Z,995.71
2023-01-26T08:34:57.986Z,995.61
2023-01-26T08:35:58.010Z,995.71
2023-01-26T08:36:58.654Z,995.68
2023-01-26T08:37:57.959Z,995.63
2023-01-26T08:38:57.988Z,995.66
2023-01-26T08:39:57.924Z,995.67
2023-01-26T08:40:58.687Z,995.63
2023-01-26T08:41:57.903Z,995.62
2023-01-26T08:42:57.901Z,995.62
2023-01-26T08:43:57.882Z,995.68
2023-01-26T08:44:57.913Z,995.68
2023-01-26T08:45:57.943Z,995.68
2023-01-26T08:46:57.866Z,995.69
2023-01-26T08:47:57.846Z,995.76
2023-01-26T08:49:00.264Z,995.69
2023-01-26T08:49:58.834Z,995.68
2023-01-26T08:50:57.828Z,995.65
2023-01-26T08:51:57.816Z,995.62
2023-01-26T08:52:57.820Z,995.66
2023-01-26T08:53:57.805Z,995.62
2023-01-26T08:54:57.763Z,995.61
2023-01-26T08:55:57.764Z,995.60
2023-01-26T08:56:58.770Z,995.66
2023-01-26T08:57:57.745Z,995.61
2023-01-26T08:58:58.213Z,995.62
2023-01-26T08:59:57.719Z,995.70
2023-01-26T09:00:57.733Z,995.65
2023-01-26T09:01:57.779Z,995.68
2023-01-26T09:02:57.816Z,995.68
2023-01-26T09:03:57.669Z,995.63
2023-01-26T09:04:57.687Z,995.64
2023-01-26T09:05:57.708Z,995.58
2023-01-26T09:06:58.261Z,995.62
2023-01-26T09:07:57.761Z,995.60
2023-01-26T09:08:57.646Z,995.58
2023-01-26T09:09:57.672Z,995.62
2023-01-26T09:10:57.623Z,995.58
2023-01-26T09:11:57.638Z,995.58
2023-01-26T09:12:57.618Z,995.61
2023-01-26T09:13:57.574Z,995.57
2023-01-26T09:14:57.572Z,995.61
2023-01-26T09:15:57.551Z,995.59
2023-01-26T09:16:57.647Z,995.57
2023-01-26T09:18:00.513Z,995.52
2023-01-26T09:18:57.531Z,995.53
2023-01-26T09:19:57.548Z,995.50
2023-01-26T09:20:57.605Z,995.57
2023-01-26T09:21:57.535Z,995.45
2023-01-26T09:22:57.516Z,995.55
2023-01-26T09:23:57.604Z,995.51
2023-01-26T09:24:57.474Z,995.57
2023-01-26T09:25:57.501Z,995.52
2023-01-26T09:26:57.463Z,995.55
2023-01-26T09:27:57.475Z,995.54
2023-01-26T09:28:57.467Z,995.50
2023-01-26T09:29:57.531Z,995.49
2023-01-26T09:30:57.537Z,995.54
2023-01-26T09:31:57.505Z,995.53
2023-01-26T09:32:57.444Z,995.55
2023-01-26T09:33:57.386Z,995.52
2023-01-26T09:34:57.411Z,995.63
2023-01-26T09:35:57.391Z,995.55
2023-01-26T09:36:57.399Z,995.63
2023-01-26T09:37:57.353Z,995.61
2023-01-26T09:38:57.355Z,995.61
2023-01-26T09:39:57.359Z,995.61
2023-01-26T09:40:57.316Z,995.62
2023-01-26T09:41:57.404Z,995.54
2023-01-26T09:42:58.333Z,995.53
2023-01-26T09:43:57.305Z,995.58
2023-01-26T09:44:57.285Z,995.58
2023-01-26T09:45:57.326Z,995.54
2023-01-26T09:46:57.281Z,995.53
2023-01-26T09:47:57.265Z,995.58
2023-01-26T09:48:57.250Z,995.58
2023-01-26T09:49:59.314Z,995.56
2023-01-26T09:50:57.261Z,995.58
2023-01-26T09:52:00.593Z,995.59
2023-01-26T09:52:58.213Z,995.67
2023-01-26T09:53:57.191Z,995.64
2023-01-26T09:54:57.203Z,995.66
2023-01-26T09:55:57.186Z,995.62
2023-01-26T09:56:57.177Z,995.62
2023-01-26T09:57:57.157Z,995.63
2023-01-26T09:58:57.153Z,995.61
2023-01-26T09:59:57.168Z,995.60
2023-01-26T10:00:57.130Z,995.62
2023-01-26T10:01:57.115Z,995.57
2023-01-26T10:02:57.177Z,995.55
2023-01-26T10:03:57.538Z,995.53
2023-01-26T10:04:57.137Z,995.54
2023-01-26T10:05:57.082Z,995.54
2023-01-26T10:06:57.085Z,995.50
2023-01-26T10:07:57.059Z,995.42
2023-01-26T10:08:57.051Z,995.48
2023-01-26T10:09:57.067Z,995.46
2023-01-26T10:10:57.057Z,995.47
2023-01-26T10:11:57.052Z,995.43
2023-01-26T10:12:57.055Z,995.48
2023-01-26T10:13:56.994Z,995.40
2023-01-26T10:14:57.635Z,995.41
2023-01-26T10:15:58.107Z,995.34
2023-01-26T10:16:56.986Z,995.24
2023-01-26T10:17:56.989Z,995.32
2023-01-26T10:18:56.962Z,995.30
2023-01-26T10:19:56.991Z,995.28
2023-01-26T10:20:56.943Z,995.31
2023-01-26T10:21:56.930Z,995.28
2023-01-26T10:22:56.953Z,995.27
2023-01-26T10:23:56.980Z,995.37
2023-01-26T10:24:56.896Z,995.34
2023-01-26T10:25:56.934Z,995.30
2023-01-26T10:26:56.890Z,995.30
2023-01-26T10:27:56.873Z,995.29
2023-01-26T10:28:56.881Z,995.30
2023-01-26T10:29:56.855Z,995.20
2023-01-26T10:30:56.958Z,995.22
2023-01-26T10:31:56.895Z,995.16
2023-01-26T10:32:56.826Z,995.21
2023-01-26T10:33:56.811Z,995.15
2023-01-26T10:34:56.811Z,995.21
2023-01-26T10:35:56.785Z,995.17
2023-01-26T10:36:56.783Z,995.22
2023-01-26T10:37:56.830Z,995.13
2023-01-26T10:38:56.763Z,995.13
2023-01-26T10:39:56.748Z,995.12
2023-01-26T10:40:56.760Z,995.05
2023-01-26T10:41:56.759Z,995.03
2023-01-26T10:42:56.754Z,995.04
2023-01-26T10:43:56.724Z,995.10
2023-01-26T10:44:59.224Z,995.01
2023-01-26T10:45:57.688Z,995.02
2023-01-26T10:46:56.703Z,995.04
2023-01-26T10:47:56.706Z,995.01
2023-01-26T10:48:56.660Z,994.97
2023-01-26T10:49:56.674Z,994.96
2023-01-26T10:50:56.644Z,994.92
2023-01-26T10:51:56.648Z,995.01
2023-01-26T10:52:56.652Z,994.99
2023-01-26T10:53:56.633Z,994.94
2023-01-26T10:54:56.635Z,995.00
2023-01-26T10:55:56.647Z,994.98
2023-01-26T10:56:56.601Z,995.00
2023-01-26T10:57:56.577Z,994.97
2023-01-26T10:58:56.577Z,994.89
2023-01-26T10:59:56.597Z,994.91
2023-01-26T11:00:56.535Z,994.86
2023-01-26T11:01:56.636Z,994.90
2023-01-26T11:02:56.605Z,994.83
2023-01-26T11:03:56.530Z,994.86
2023-01-26T11:04:56.520Z,994.86
2023-01-26T11:05:57.512Z,994.89
2023-01-26T11:06:56.478Z,994.86
2023-01-26T11:07:56.525Z,994.80
2023-01-26T11:08:56.498Z,994.86
2023-01-26T11:09:56.451Z,994.85
2023-01-26T11:10:56.434Z,994.84
2023-01-26T11:11:56.445Z,994.83
2023-01-26T11:12:56.444Z,994.83
2023-01-26T11:13:56.441Z,994.79
2023-01-26T11:14:56.408Z,994.74
2023-01-26T11:15:56.479Z,994.80
2023-01-26T11:16:56.396Z,994.83
2023-01-26T11:17:56.375Z,994.79
2023-01-26T11:18:56.387Z,994.73
2023-01-26T11:19:56.415Z,994.72
2023-01-26T11:20:56.406Z,994.73
2023-01-26T11:21:56.331Z,994.77
2023-01-26T11:22:56.321Z,994.73
2023-01-26T11:23:56.401Z,994.69
2023-01-26T11:24:56.321Z,994.68
2023-01-26T11:25:56.326Z,994.65
2023-01-26T11:26:56.299Z,994.63
2023-01-26T11:27:56.271Z,994.60
2023-01-26T11:28:56.279Z,994.66
2023-01-26T11:29:56.281Z,994.66
2023-01-26T11:30:56.329Z,994.70
2023-01-26T11:31:56.272Z,994.64
2023-01-26T11:32:56.249Z,994.65
2023-01-26T11:33:56.215Z,994.67
2023-01-26T11:34:56.203Z,994.63
2023-01-26T11:35:56.236Z,994.60
2023-01-26T11:36:56.225Z,994.57
2023-01-26T11:37:56.188Z,994.54
2023-01-26T11:38:56.160Z,994.61
2023-01-26T11:39:56.167Z,994.61
2023-01-26T11:40:56.178Z,994.60
2023-01-26T11:41:56.165Z,994.56
2023-01-26T11:42:56.189Z,994.49
2023-01-26T11:43:56.225Z,994.51
2023-01-26T11:44:56.116Z,994.46
2023-01-26T11:45:57.258Z,994.51
2023-01-26T11:46:57.092Z,994.47
2023-01-26T11:47:56.144Z,994.50
2023-01-26T11:48:56.094Z,994.41
2023-01-26T11:49:56.608Z,994.41
2023-01-26T11:50:56.329Z,994.44
2023-01-26T11:51:56.137Z,994.35
2023-01-26T11:52:56.064Z,994.40
2023-01-26T11:53:56.045Z,994.37
2023-01-26T11:54:56.049Z,994.35
2023-01-26T11:55:55.999Z,994.39
2023-01-26T11:56:56.297Z,994.37
2023-01-26T11:57:56.276Z,994.40
2023-01-26T11:58:56.264Z,994.42
2023-01-26T11:59:56.075Z,994.39
2023-01-26T12:00:56.005Z,994.28
2023-01-26T12:01:56.787Z,994.32
2023-01-26T12:02:55.950Z,994.29
2023-01-26T12:03:55.968Z,994.26
2023-01-26T12:04:55.941Z,994.26
2023-01-26T12:05:55.922Z,994.31
2023-01-26T12:06:55.909Z,994.32
2023-01-26T12:07:55.910Z,994.24
2023-01-26T12:08:55.902Z,994.30
2023-01-26T12:09:56.360Z,994.35
2023-01-26T12:10:55.887Z,994.29
2023-01-26T12:11:55.853Z,994.28
2023-01-26T12:12:55.846Z,994.21
2023-01-26T12:13:55.842Z,994.24
2023-01-26T12:14:55.848Z,994.19
2023-01-26T12:15:55.832Z,994.23
2023-01-26T12:17:02.120Z,994.16
2023-01-26T12:17:57.843Z,994.15
2023-01-26T12:19:09.176Z,994.14
2023-01-26T12:19:57.805Z,994.08
2023-01-26T12:20:55.770Z,994.06
2023-01-26T12:21:55.793Z,994.11
2023-01-26T12:22:55.765Z,994.07
2023-01-26T12:23:55.757Z,994.07
2023-01-26T12:25:18.195Z,994.02
2023-01-26T12:25:57.812Z,994.03
2023-01-26T12:26:55.710Z,994.01
2023-01-26T12:27:55.762Z,994.01